Latest Coastal Weather Observations for Bundaberg

IDQ60701

Issued at 3:42 pm EST Friday 24 February 2017 (issued every 10 minutes, with the page automatically refreshed every 10 minutes)

About coastal observations | Map of coastal stations | Coastal observations for QLD | Marine services | Other Formats
Station Details ID: 039128 Name: BUNDABERG AERO Lat: -24.91 Lon: 152.32 Height: 30.82 m
Data from the previous 72 hours. | See also: Recent months at Bundaberg
Date/Time
EST
Temp
°C
Wind Pressure Rain since
9am
mm
Weather Cloud Vis
km
Sea
Height
m
Swell
Dir  Spd
kts
Gust
kts
hPa Trend Height
m
Period
s
Dir
24/03:30pm 30.4 E 14 19 1013.8 - 0.0 - - 10 - - - -
24/03:00pm 31.4 ENE 14 21 1013.8 - 0.0 - - 10 - - - -
24/02:30pm 31.1 ENE 13 21 1014.0 - 0.0 - - 10 - - - -
24/02:00pm 31.1 E 13 20 1014.1 - 0.0 - - 10 - - - -
24/01:30pm 31.0 E 13 17 1014.3 - 0.0 - - 10 - - - -
24/01:00pm 31.8 E 11 16 1014.8 - 0.0 - - 10 - - - -
24/12:30pm 30.9 E 11 18 1015.2 - 0.0 - Partly cloudy 10 - - - -
24/12:00pm 31.4 E 11 20 1015.5 - 0.0 - Mostly clear 10 - - - -
24/11:30am 30.4 ESE 11 16 1015.9 - 0.0 - Partly cloudy 10 - - - -
24/11:00am 30.1 E 11 16 1016.3 - 0.0 - - 10 - - - -
24/10:30am 30.1 E 12 17 1016.6 - 0.0 - Partly cloudy 10 - - - -
24/10:00am 29.8 ESE 12 18 1016.9 - 0.0 - Partly cloudy 10 - - - -
24/09:30am 29.3 ESE 12 15 1017.0 - 0.0 - Partly cloudy 10 - - - -
24/09:00am 28.4 SE 13 17 1017.1 - 0.0 - - 10 - - - -
24/08:30am 27.4 SE 12 16 1017.1 - 0.0 - - 10 - - - -
24/08:00am 25.2 SSE 9 11 1016.9 - 0.0 - - 10 - - - -
24/07:30am 23.8 S 8 10 1016.8 - 0.0 - - 10 - - - -
24/07:00am 23.0 SSE 7 10 1016.5 - 0.0 - - 10 - - - -
24/06:30am 21.8 SSE 7 10 1016.2 - 0.0 - - 10 - - - -
24/06:00am 20.8 SSE 7 9 1016.0 - 0.0 - Partly cloudy 10 - - - -
24/05:30am 20.5 SSE 6 9 1015.7 - 0.0 - Partly cloudy 10 - - - -
24/05:00am 20.1 SSW 6 8 1015.7 - 0.0 - Partly cloudy 10 - - - -
24/04:30am 19.8 S 6 8 1015.3 - 0.0 - - 10 - - - -
24/04:00am 19.9 S 5 8 1015.5 - 0.0 - - 10 - - - -
24/03:30am 20.2 S 7 9 1015.4 - 0.0 - - 10 - - - -
24/03:00am 20.2 S 7 10 1015.5 - 0.0 - - 10 - - - -
24/02:30am 20.4 SSW 6 9 1015.9 - 0.0 - - 10 - - - -
24/02:00am 20.1 SSW 5 7 1016.1 - 0.0 - - 10 - - - -
24/01:30am 20.4 SSW 5 7 1016.5 - 0.0 - - 10 - - - -
24/01:00am 20.9 SSE 6 8 1016.6 - 0.0 - - 10 - - - -
24/12:30am 21.3 SSE 7 9 1016.9 - 0.0 - - 10 - - - -
24/12:00am 21.2 S 6 8 1017.2 - 0.0 - - 10 - - - -
 
Date/Time
EST
Temp
°C
Wind Pressure Rain since
9am
mm
Weather Cloud Vis
km
Sea
Height
m
Swell
Dir  Spd
kts
Gust
kts
hPa Trend Height
m
Period
s
Dir
23/11:30pm 21.8 S 7 9 1017.3 - 0.0 - - 10 - - - -
23/11:00pm 22.1 SSE 7 9 1017.3 - 0.0 - - 10 - - - -
23/10:30pm 22.2 SSE 6 9 1017.4 - 0.0 - - 10 - - - -
23/10:00pm 22.9 SSE 7 10 1017.5 - 0.0 - - 10 - - - -
23/09:30pm 23.3 SE 8 11 1017.5 - 0.0 - - 10 - - - -
23/09:00pm 24.0 SE 10 12 1017.4 - 0.0 - - 10 - - - -
23/08:30pm 24.6 SE 15 18 1017.2 - 0.0 - - 10 - - - -
23/08:00pm 25.0 SE 17 23 1016.9 - 0.0 - - 10 - - - -
23/07:30pm 25.4 SE 14 19 1016.5 - 0.0 - - 10 - - - -
23/07:00pm 25.8 ESE 15 20 1016.1 - 0.0 - - 10 - - - -
23/06:30pm 26.2 ESE 15 20 1015.7 - 0.0 - - 10 - - - -
23/06:00pm 26.7 ESE 17 22 1015.2 - 0.0 - - 10 - - - -
23/05:30pm 27.8 ESE 19 26 1015.0 - 0.0 - - 10 - - - -
23/05:22pm 27.7 ESE 16 26 1015.0 - 0.0 - - 10 - - - -
23/05:00pm 28.2 E 17 22 1014.8 - 0.0 - - 10 - - - -
23/04:30pm 29.2 E 18 24 1014.6 - 0.0 - - 10 - - - -
23/04:00pm 29.5 E 16 24 1014.5 - 0.0 - - 10 - - - -
23/03:30pm 30.0 E 18 22 1014.5 - 0.0 - - 10 - - - -
23/03:00pm 30.0 E 16 22 1014.6 - 0.0 - - 10 - - - -
23/02:30pm 30.8 E 17 23 1014.8 - 0.0 - - 10 - - - -
23/02:00pm 31.0 ESE 16 23 1015.1 - 0.0 - - 10 - - - -
23/01:30pm 30.9 E 16 21 1015.4 - 0.0 - - 10 - - - -
23/01:00pm 30.8 E 16 23 1015.7 - 0.0 - - 10 - - - -
23/12:30pm 31.7 E 14 19 1015.8 - 0.0 - - 10 - - - -
23/12:00pm 31.4 E 13 20 1016.2 - 0.0 - Mostly clear 10 - - - -
23/11:30am 31.0 E 13 19 1016.5 - 0.0 - Partly cloudy 10 - - - -
23/11:00am 31.2 E 13 19 1016.8 - 0.0 - Partly cloudy 10 - - - -
23/10:30am 29.8 ESE 12 19 1017.1 - 0.0 - Partly cloudy 10 - - - -
23/10:00am 28.7 SE 12 17 1017.5 - 0.0 - Partly cloudy 10 - - - -
23/09:30am 29.1 SE 14 19 1017.5 - 0.0 - Partly cloudy 10 - - - -
23/09:00am 27.6 SE 14 19 1017.6 - 0.0 - Mostly clear 10 - - - -
23/08:30am 27.1 SE 13 19 1017.6 - 0.0 - - 10 - - - -
23/08:00am 26.2 SSE 10 15 1017.4 - 0.0 - - 10 - - - -
23/07:30am 24.2 SSE 9 13 1017.1 - 0.0 - - 10 - - - -
23/07:00am 23.0 SSE 8 12 1016.8 - 0.0 - - 10 - - - -
23/06:30am 21.9 S 7 9 1016.8 - 0.0 - - 10 - - - -
23/06:00am 21.1 S 6 9 1016.6 - 0.0 - Mostly clear 10 - - - -
23/05:30am 21.3 S 5 8 1016.5 - 0.0 - - 10 - - - -
23/05:00am 21.6 S 6 8 1016.2 - 0.0 - - 10 - - - -
23/04:30am 21.5 S 5 7 1016.1 - 0.0 - - 10 - - - -
23/04:00am 21.7 S 7 9 1015.7 - 0.0 - - 10 - - - -
23/03:30am 21.8 S 7 10 1015.8 - 0.0 - - 10 - - - -
23/03:00am 22.0 S 6 9 1015.9 - 0.0 - Cloudy 10 - - - -
23/02:30am 22.3 S 6 9 1016.2 - 0.0 - - 10 - - - -
23/02:00am 22.4 S 6 8 1016.3 - 0.0 - - 10 - - - -
23/01:30am 22.5 S 6 8 1016.7 - 0.0 - - 10 - - - -
23/01:00am 22.6 S 7 8 1016.8 - 0.0 - - 10 - - - -
23/12:30am 22.7 S 7 9 1017.0 - 0.0 - - 10 - - - -
23/12:00am 22.7 S 6 8 1017.2 - 0.0 - Partly cloudy 10 - - - -
 
Date/Time
EST
Temp
°C
Wind Pressure Rain since
9am
mm
Weather Cloud Vis
km
Sea
Height
m
Swell
Dir  Spd
kts
Gust
kts
hPa Trend Height
m
Period
s
Dir
22/11:30pm 22.7 S 7 9 1017.3 - 0.0 - - 10 - - - -
22/11:00pm 23.0 SSE 7 10 1017.4 - 0.0 - - 10 - - - -
22/10:30pm 23.4 SSE 7 10 1017.5 - 0.0 - - 10 - - - -
22/10:00pm 23.9 SSE 8 11 1017.6 - 0.0 - - 10 - - - -
22/09:30pm 24.1 SSE 8 12 1017.7 - 0.0 - - 10 - - - -
22/09:00pm 24.6 SSE 11 13 1017.5 - 0.0 - - 10 - - - -
22/08:30pm 24.8 SE 12 16 1017.3 - 0.0 - - 10 - - - -
22/08:00pm 25.2 SE 12 17 1017.0 - 0.0 - - 10 - - - -
22/07:30pm 25.6 SE 15 20 1016.6 - 0.0 - - 10 - - - -
22/07:00pm 25.8 SE 14 19 1016.3 - 0.0 - - 10 - - - -
22/06:30pm 26.3 ESE 16 22 1016.1 - 0.0 - - 10 - - - -
22/06:00pm 26.7 ESE 18 25 1015.9 - 0.0 - - 10 - - - -
22/05:30pm 27.5 ESE 19 27 1015.5 - 0.0 - - 10 - - - -
22/05:00pm 27.8 ESE 22 28 1015.1 - 0.0 - - 10 - - - -
22/04:30pm 29.1 ESE 21 29 1014.7 - 0.0 - - 10 - - - -
22/04:00pm 30.0 ESE 21 30 1014.5 - 0.0 - - 10 - - - -
22/03:34pm 29.6 ESE 21 31 1014.3 - 0.0 - - 10 - - - -
22/03:30pm 30.5 ESE 20 28 1014.4 - 0.0 - - 10 - - - -
22/03:00pm 29.7 ESE 21 29 1014.3 - 0.0 - - 10 - - - -
22/02:30pm 30.3 E 21 27 1014.6 - 0.0 - - 10 - - - -
22/02:00pm 30.7 ESE 22 29 1014.8 - 0.0 - - 10 - - - -
22/01:30pm 31.3 ESE 22 29 1015.1 - 0.0 - - 10 - - - -
22/01:00pm 31.2 ESE 19 28 1015.3 - 0.0 - - 10 - - - -
22/12:30pm 31.1 ESE 20 25 1015.8 - 0.0 - - 10 - - - -
22/12:00pm 31.0 ESE 19 25 1016.0 - 0.0 - - 10 - - - -
22/11:30am 31.5 ESE 18 26 1016.4 - 0.0 - - 10 - - - -
22/11:00am 31.5 ESE 17 24 1016.8 - 0.0 - - 10 - - - -
22/10:33am 30.9 ESE 18 29 1017.1 - 0.0 - - 10 - - - -
22/10:30am 30.7 ESE 17 24 1017.1 - 0.0 - - 10 - - - -
22/10:00am 30.3 ESE 16 26 1017.1 - 0.0 - Partly cloudy 10 - - - -
22/09:56am 30.1 ESE 16 26 1017.0 - 0.0 - Partly cloudy 10 - - - -
22/09:30am 30.0 ESE 16 23 1017.4 - 0.0 - - 10 - - - -
22/09:00am 29.5 SE 16 23 1017.7 - 0.0 - Mostly clear 10 - - - -
22/08:30am 27.9 SE 15 20 1017.6 - 0.0 - - 10 - - - -
22/08:00am 26.8 SE 15 18 1017.5 - 0.0 - - 10 - - - -
22/07:30am 26.1 SSE 10 15 1017.1 - 0.0 - - 10 - - - -
22/07:00am 23.7 S 7 10 1017.1 - 0.0 - - 10 - - - -
22/06:30am 23.2 SSE 7 10 1016.7 - 0.0 - - 10 - - - -
22/06:00am 23.1 S 7 9 1016.6 - 0.0 - Partly cloudy 10 - - - -
22/05:30am 23.3 S 6 9 1016.3 - 0.0 - Partly cloudy 10 - - - -
22/05:00am 23.6 SSE 7 10 1015.9 - 0.0 - Cloudy 10 - - - -
22/04:30am 23.4 S 8 14 1015.6 - 0.0 - - 10 - - - -
22/04:00am 23.6 SSE 8 11 1015.4 - 0.0 - Partly cloudy 10 - - - -
22/03:30am 23.6 SSE 8 12 1015.2 - 0.0 - Partly cloudy 10 - - - -
22/03:00am 23.6 S 8 12 1015.3 - 0.0 - Cloudy 10 - - - -
22/02:30am 23.8 S 7 10 1015.4 - 0.0 - - 10 - - - -
22/02:00am 23.7 SSE 7 10 1015.3 - 0.0 - Partly cloudy 10 - - - -
22/01:30am 23.7 SSE 7 9 1015.6 - 0.0 - Partly cloudy 10 - - - -
22/01:00am 23.7 S 7 10 1015.7 - 0.0 - Partly cloudy 10 - - - -
22/12:30am 24.4 SSE 7 10 1015.8 - 0.0 - Partly cloudy 10 - - - -
22/12:00am 24.1 S 6 8 1016.0 - 0.0 - Mostly clear 10 - - - -
 
Date/Time
EST
Temp
°C
Wind Pressure Rain since
9am
mm
Weather Cloud Vis
km
Sea
Height
m
Swell
Dir  Spd
kts
Gust
kts
hPa Trend Height
m
Period
s
Dir
21/11:30pm 24.4 SSE 7 8 1016.1 - 0.0 - Partly cloudy 10 - - - -
21/11:00pm 24.8 SSE 8 10 1016.2 - 0.0 - Partly cloudy 10 - - - -
21/10:30pm 25.2 SE 9 12 1016.3 - 0.0 - Partly cloudy 10 - - - -
21/10:00pm 25.1 SSE 7 9 1016.3 - 0.0 - Partly cloudy 10 - - - -
21/09:30pm 25.2 SE 9 11 1016.3 - 0.0 - Partly cloudy 10 - - - -
21/09:00pm 25.7 SE 10 13 1016.2 - 0.0 - Cloudy 10 - - - -
21/08:30pm 25.8 SE 10 13 1016.0 - 0.0 - Partly cloudy 10 - - - -
21/08:00pm 26.3 SE 13 18 1015.7 - 0.0 - - 10 - - - -
21/07:30pm 26.3 ESE 13 16 1015.5 - 0.0 - - 10 - - - -
21/07:00pm 26.7 ESE 13 18 1015.3 - 0.0 - - 10 - - - -
21/06:30pm 27.1 ESE 15 20 1015.0 - 0.0 - - 10 - - - -
21/06:00pm 27.7 ESE 16 21 1014.5 - 0.0 - - 10 - - - -
21/05:30pm 28.7 E 17 22 1014.2 - 0.0 - - 10 - - - -
21/05:00pm 29.1 ESE 17 23 1014.0 - 0.0 - - 10 - - - -
21/04:30pm 29.8 E 17 22 1013.6 - 0.0 - - 10 - - - -
21/04:00pm 30.4 E 16 20 1013.4 - 0.0 - Partly cloudy 10 - - - -

Other Formats:

Comma delimited format used in spreadsheet applications
http://www.bom.gov.au/fwo/IDQ60701/IDQ60701.94387.axf

JavaScript Object Notation format (JSON) in row-major order
http://www.bom.gov.au/fwo/IDQ60701/IDQ60701.94387.json